Time,TemperatureF,DewpointF,PressureIn,WindDirection,WindDirectionDegrees,WindSpeedMPH,WindSpeedGustMPH,Humidity,HourlyPrecipIn,Conditions,Clouds,dailyrainin,SoftwareType,DateUTC
2013-04-20 00:03:00,54.0,53.0,-100.00,SW,215,4.0,13.0,93,0.11,,,-99.99,,2013-04-20 04:03:00,
2013-04-20 00:12:00,52.0,50.0,-100.00,NNW,330,6.0,9.0,93,0.17,,,-99.99,,2013-04-20 04:12:00,
2013-04-20 00:23:00,52.0,50.0,-100.00,NNW,330,7.0,11.0,93,0.18,,,-99.99,,2013-04-20 04:23:00,
2013-04-20 00:33:00,51.0,49.0,-100.00,North,-999,-999.0,-999.0,93,-99.99,,,-99.99,,2013-04-20 04:33:00,
2013-04-20 00:42:00,51.0,49.0,-100.00,NNW,330,5.0,10.0,93,0.16,,,-99.99,,2013-04-20 04:42:00,
2013-04-20 00:52:00,51.0,50.0,-100.00,WNW,290,4.0,9.0,94,0.04,,,-99.99,,2013-04-20 04:52:00,
2013-04-20 01:02:00,51.0,50.0,-100.00,North,-999,-999.0,-999.0,95,-99.99,,,-99.99,,2013-04-20 05:02:00,
2013-04-20 01:12:00,51.0,49.0,-100.00,South,190,6.0,10.0,95,0.17,,,-99.99,,2013-04-20 05:12:00,
2013-04-20 01:22:00,51.0,50.0,-100.00,WNW,300,1.0,11.0,95,0.14,,,-99.99,,2013-04-20 05:22:00,
2013-04-20 01:32:00,51.0,50.0,-100.00,NW,325,5.0,11.0,95,0.14,,,-99.99,,2013-04-20 05:32:00,
2013-04-20 01:43:00,50.0,49.0,-100.00,NW,310,4.0,11.0,95,0.01,,,-99.99,,2013-04-20 05:43:00,
2013-04-20 01:51:00,49.0,48.0,-100.00,NW,320,3.0,7.0,95,0.01,,,-99.99,,2013-04-20 05:51:00,
2013-04-20 02:02:00,48.0,47.0,-100.00,NNW,335,6.0,11.0,94,0.04,,,-99.99,,2013-04-20 06:02:00,
2013-04-20 02:12:00,48.0,47.0,-100.00,NNW,335,6.0,11.0,94,0.04,,,-99.99,,2013-04-20 06:12:00,
2013-04-20 02:21:00,48.0,47.0,-100.00,NNW,335,6.0,11.0,94,0.04,,,-99.99,,2013-04-20 06:21:00,
2013-04-20 02:32:00,45.0,44.0,-100.00,NNW,345,7.0,10.0,94,0.03,,,-99.99,,2013-04-20 06:32:00,
2013-04-20 02:42:00,45.0,43.0,-100.00,NNW,330,6.0,11.0,94,0.01,,,-99.99,,2013-04-20 06:42:00,
2013-04-20 02:52:00,44.0,43.0,-100.00,NW,325,4.0,11.0,93,0.03,,,-99.99,,2013-04-20 06:52:00,
2013-04-20 03:01:00,45.0,43.0,-100.00,SSE,160,1.0,6.0,93,0.01,,,-99.99,,2013-04-20 07:01:00,
2013-04-20 03:11:00,44.0,42.0,-100.00,NNE,15,2.0,6.0,93,0.03,,,-99.99,,2013-04-20 07:11:00,
2013-04-20 03:21:00,44.0,42.0,-100.00,NE,55,1.0,6.0,93,0.01,,,-99.99,,2013-04-20 07:21:00,
2013-04-20 03:32:00,44.0,42.0,-100.00,NNW,345,6.0,7.0,93,0.04,,,-99.99,,2013-04-20 07:32:00,
2013-04-20 03:42:00,44.0,42.0,-100.00,NE,45,1.0,7.0,92,0.08,,,-99.99,,2013-04-20 07:42:00,
2013-04-20 03:52:00,44.0,42.0,-100.00,East,85,1.0,5.0,92,0.01,,,-99.99,,2013-04-20 07:52:00,
2013-04-20 04:02:00,43.0,41.0,-100.00,NNE,15,2.0,4.0,93,0.04,,,-99.99,,2013-04-20 08:02:00,
2013-04-20 04:11:00,43.0,41.0,-100.00,WNW,285,1.0,3.0,93,0.07,,,-99.99,,2013-04-20 08:11:00,
2013-04-20 04:21:00,43.0,41.0,-100.00,NW,315,2.0,3.0,93,0.06,,,-99.99,,2013-04-20 08:21:00,
2013-04-20 04:32:00,43.0,41.0,-100.00,North,10,2.0,7.0,93,0.04,,,-99.99,,2013-04-20 08:32:00,
2013-04-20 04:42:00,42.0,40.0,-100.00,North,355,3.0,5.0,93,0.03,,,-99.99,,2013-04-20 08:42:00,
2013-04-20 04:52:00,42.0,40.0,-100.00,NW,310,2.0,4.0,93,0.14,,,-99.99,,2013-04-20 08:52:00,
2013-04-20 05:01:00,42.0,40.0,-100.00,NNW,335,1.0,4.0,93,0.16,,,-99.99,,2013-04-20 09:01:00,
2013-04-20 05:12:00,42.0,40.0,-100.00,NW,325,3.0,6.0,93,0.20,,,-99.99,,2013-04-20 09:12:00,
2013-04-20 05:21:00,42.0,40.0,-100.00,NW,320,6.0,11.0,93,0.03,,,-99.99,,2013-04-20 09:21:00,
2013-04-20 05:33:00,40.0,38.0,-100.00,NNW,335,9.0,14.0,91,0.06,,,-99.99,,2013-04-20 09:33:00,
2013-04-20 05:43:00,39.0,37.0,-100.00,NNW,340,7.0,14.0,90,0.03,,,-99.99,,2013-04-20 09:43:00,
2013-04-20 05:53:00,38.0,36.0,-100.00,NNW,335,9.0,14.0,89,0.00,,,-99.99,,2013-04-20 09:53:00,
2013-04-20 06:03:00,38.0,36.0,-100.00,NW,315,4.0,14.0,89,0.01,,,-99.99,,2013-04-20 10:03:00,
2013-04-20 06:13:00,38.0,35.0,-100.00,NNW,340,1.0,8.0,89,0.00,,,-99.99,,2013-04-20 10:13:00,
2013-04-20 06:23:00,38.0,35.0,-100.00,South,190,1.0,4.0,89,0.00,,,-99.99,,2013-04-20 10:23:00,
2013-04-20 06:33:00,38.0,35.0,-100.00,SSE,155,1.0,3.0,90,0.00,,,-99.99,,2013-04-20 10:33:00,
2013-04-20 06:42:00,38.0,36.0,-100.00,South,175,1.0,1.0,91,0.00,,,-99.99,,2013-04-20 10:42:00,
2013-04-20 06:52:00,38.0,36.0,-100.00,SW,230,1.0,1.0,91,0.00,,,-99.99,,2013-04-20 10:52:00,
2013-04-20 07:02:00,38.0,36.0,-100.00,NNW,330,1.0,5.0,92,0.00,,,-99.99,,2013-04-20 11:02:00,
2013-04-20 07:12:00,38.0,36.0,-100.00,NNW,335,2.0,7.0,91,0.00,,,-99.99,,2013-04-20 11:12:00,
2013-04-20 07:23:00,39.0,36.0,-100.00,West,260,1.0,7.0,91,0.00,,,-99.99,,2013-04-20 11:23:00,
2013-04-20 07:32:00,39.0,36.0,-100.00,NNW,335,2.0,6.0,91,0.00,,,-99.99,,2013-04-20 11:32:00,
2013-04-20 07:42:00,39.0,36.0,-100.00,WNW,290,1.0,6.0,91,0.00,,,-99.99,,2013-04-20 11:42:00,
2013-04-20 07:52:00,39.0,36.0,-100.00,West,275,4.0,7.0,91,0.00,,,-99.99,,2013-04-20 11:52:00,
2013-04-20 08:02:00,39.0,37.0,-100.00,WNW,300,1.0,7.0,90,0.00,,,-99.99,,2013-04-20 12:02:00,
2013-04-20 08:11:00,39.0,37.0,-100.00,WNW,295,1.0,3.0,90,0.00,,,-99.99,,2013-04-20 12:11:00,
2013-04-20 08:22:00,40.0,37.0,-100.00,WSW,240,1.0,3.0,91,0.00,,,-99.99,,2013-04-20 12:22:00,
2013-04-20 08:32:00,40.0,37.0,-100.00,North,-999,-999.0,-999.0,91,0.00,,,-99.99,,2013-04-20 12:32:00,
2013-04-20 08:42:00,40.0,38.0,-100.00,South,180,1.0,3.0,90,0.00,,,-99.99,,2013-04-20 12:42:00,
2013-04-20 08:52:00,41.0,38.0,-100.00,SSE,160,0.0,2.0,87,0.00,,,-99.99,,2013-04-20 12:52:00,
2013-04-20 09:02:00,42.0,38.0,-100.00,West,280,1.0,2.0,85,0.00,,,-99.99,,2013-04-20 13:02:00,
2013-04-20 09:11:00,42.0,37.0,-100.00,South,185,0.0,4.0,83,0.00,,,-99.99,,2013-04-20 13:11:00,
2013-04-20 09:21:00,42.0,35.0,-100.00,WSW,245,2.0,6.0,77,0.00,,,-99.99,,2013-04-20 13:21:00,
2013-04-20 09:32:00,43.0,36.0,-100.00,West,265,1.0,4.0,74,0.00,,,-99.99,,2013-04-20 13:32:00,
2013-04-20 09:42:00,44.0,36.0,-100.00,East,80,1.0,6.0,73,0.00,,,-99.99,,2013-04-20 13:42:00,
2013-04-20 09:52:00,44.0,35.0,-100.00,NW,305,2.0,4.0,68,0.00,,,-99.99,,2013-04-20 13:52:00,
2013-04-20 10:02:00,45.0,34.0,-100.00,NW,315,1.0,6.0,66,0.00,,,-99.99,,2013-04-20 14:02:00,
2013-04-20 10:11:00,45.0,34.0,-100.00,North,0,2.0,7.0,64,0.00,,,-99.99,,2013-04-20 14:11:00,
2013-04-20 10:21:00,45.0,32.0,-100.00,WNW,300,5.0,11.0,59,0.00,,,-99.99,,2013-04-20 14:21:00,
2013-04-20 10:32:00,45.0,35.0,-100.00,SW,235,4.0,7.0,68,0.00,,,-99.99,,2013-04-20 14:32:00,
2013-04-20 10:42:00,44.0,33.0,-100.00,WSW,240,2.0,9.0,66,0.00,,,-99.99,,2013-04-20 14:42:00,
2013-04-20 10:51:00,44.0,31.0,-100.00,WNW,300,6.0,12.0,59,0.00,,,-99.99,,2013-04-20 14:51:00,
2013-04-20 11:01:00,45.0,32.0,-100.00,NNW,340,5.0,11.0,61,0.00,,,-99.99,,2013-04-20 15:01:00,
2013-04-20 11:11:00,45.0,33.0,-100.00,NW,320,4.0,9.0,62,0.00,,,-99.99,,2013-04-20 15:11:00,
2013-04-20 11:21:00,45.0,31.0,-100.00,NW,305,4.0,9.0,57,0.00,,,-99.99,,2013-04-20 15:21:00,
2013-04-20 11:33:00,46.0,31.0,-100.00,NW,315,4.0,12.0,57,0.00,,,-99.99,,2013-04-20 15:33:00,
2013-04-20 11:43:00,46.0,30.0,-100.00,WNW,300,4.0,9.0,53,0.00,,,-99.99,,2013-04-20 15:43:00,
2013-04-20 11:53:00,46.0,29.0,-100.00,West,280,4.0,12.0,49,0.00,,,-99.99,,2013-04-20 15:53:00,
2013-04-20 12:03:00,47.0,30.0,-100.00,West,275,5.0,11.0,50,0.00,,,-99.99,,2013-04-20 16:03:00,
2013-04-20 12:12:00,47.0,26.0,-100.00,NNW,335,3.0,11.0,43,0.00,,,-99.99,,2013-04-20 16:12:00,
2013-04-20 12:23:00,47.0,26.0,-100.00,West,270,7.0,13.0,43,0.00,,,-99.99,,2013-04-20 16:23:00,
2013-04-20 12:33:00,46.0,25.0,-100.00,West,275,6.0,13.0,43,0.00,,,-99.99,,2013-04-20 16:33:00,
2013-04-20 12:42:00,47.0,26.0,-100.00,West,275,5.0,12.0,43,0.00,,,-99.99,,2013-04-20 16:42:00,
2013-04-20 12:52:00,48.0,27.0,-100.00,WSW,255,2.0,8.0,42,0.00,,,-99.99,,2013-04-20 16:52:00,
2013-04-20 13:02:00,48.0,26.0,-100.00,WNW,300,7.0,15.0,41,0.00,,,-99.99,,2013-04-20 17:02:00,
2013-04-20 13:12:00,49.0,26.0,-100.00,WSW,255,4.0,10.0,40,0.00,,,-99.99,,2013-04-20 17:12:00,
2013-04-20 13:23:00,48.0,25.0,-100.00,West,260,6.0,9.0,39,0.00,,,-99.99,,2013-04-20 17:23:00,
2013-04-20 13:33:00,48.0,24.0,-100.00,West,275,5.0,14.0,39,0.00,,,-99.99,,2013-04-20 17:33:00,
2013-04-20 13:42:00,47.0,25.0,-100.00,NW,305,6.0,15.0,40,0.00,,,-99.99,,2013-04-20 17:42:00,
2013-04-20 13:52:00,48.0,26.0,-100.00,WNW,295,3.0,12.0,42,0.00,,,-99.99,,2013-04-20 17:52:00,
2013-04-20 14:02:00,48.0,24.0,-100.00,WNW,300,6.0,12.0,38,0.00,,,-99.99,,2013-04-20 18:02:00,
2013-04-20 14:12:00,48.0,24.0,-100.00,West,270,4.0,14.0,38,0.00,,,-99.99,,2013-04-20 18:12:00,
2013-04-20 14:22:00,48.0,24.0,-100.00,NW,305,3.0,12.0,38,0.00,,,-99.99,,2013-04-20 18:22:00,
2013-04-20 14:32:00,48.0,24.0,-100.00,West,270,5.0,11.0,39,0.00,,,-99.99,,2013-04-20 18:32:00,
2013-04-20 14:42:00,47.0,23.0,-100.00,WNW,290,6.0,16.0,37,0.00,,,-99.99,,2013-04-20 18:42:00,
2013-04-20 14:52:00,47.0,23.0,-100.00,WNW,295,7.0,16.0,38,0.00,,,-99.99,,2013-04-20 18:52:00,
2013-04-20 15:02:00,48.0,22.0,-100.00,WNW,295,6.0,16.0,36,0.00,,,-99.99,,2013-04-20 19:02:00,
2013-04-20 15:11:00,48.0,22.0,-100.00,NW,315,7.0,14.0,36,0.00,,,-99.99,,2013-04-20 19:11:00,
2013-04-20 15:21:00,47.0,23.0,-100.00,WNW,295,6.0,13.0,37,0.00,,,-99.99,,2013-04-20 19:21:00,
2013-04-20 15:32:00,47.0,22.0,-100.00,West,280,6.0,13.0,35,0.00,,,-99.99,,2013-04-20 19:32:00,
2013-04-20 15:42:00,48.0,23.0,-100.00,WNW,295,4.0,11.0,36,0.00,,,-99.99,,2013-04-20 19:42:00,
2013-04-20 15:52:00,48.0,22.0,-100.00,NW,315,4.0,18.0,34,0.00,,,-99.99,,2013-04-20 19:52:00,
2013-04-20 16:02:00,50.0,22.0,-100.00,WNW,295,7.0,18.0,32,0.00,,,-99.99,,2013-04-20 20:02:00,
2013-04-20 16:12:00,49.0,21.0,-100.00,North,-999,-999.0,-999.0,32,0.00,,,-99.99,,2013-04-20 20:12:00,
2013-04-20 16:22:00,49.0,22.0,-100.00,West,275,6.0,19.0,34,0.00,,,-99.99,,2013-04-20 20:22:00,
2013-04-20 16:32:00,50.0,21.0,-100.00,WNW,295,11.0,17.0,32,0.00,,,-99.99,,2013-04-20 20:32:00,
2013-04-20 16:42:00,49.0,22.0,-100.00,WNW,300,4.0,19.0,34,0.00,,,-99.99,,2013-04-20 20:42:00,
2013-04-20 16:52:00,47.0,22.0,-100.00,WNW,295,9.0,17.0,36,0.00,,,-99.99,,2013-04-20 20:52:00,
2013-04-20 17:01:00,47.0,22.0,-100.00,WNW,285,8.0,17.0,36,0.00,,,-99.99,,2013-04-20 21:01:00,
2013-04-20 17:12:00,48.0,22.0,-100.00,West,265,7.0,16.0,35,0.00,,,-99.99,,2013-04-20 21:12:00,
2013-04-20 17:22:00,47.0,20.0,-100.00,WNW,300,10.0,19.0,33,0.00,,,-99.99,,2013-04-20 21:22:00,
2013-04-20 17:33:00,47.0,19.0,-100.00,NW,315,9.0,20.0,32,0.00,,,-99.99,,2013-04-20 21:33:00,
2013-04-20 17:43:00,46.0,21.0,-100.00,WNW,290,6.0,15.0,35,0.00,,,-99.99,,2013-04-20 21:43:00,
2013-04-20 17:52:00,46.0,21.0,-100.00,WNW,300,9.0,17.0,35,0.00,,,-99.99,,2013-04-20 21:52:00,
2013-04-20 18:03:00,46.0,20.0,-100.00,West,270,4.0,17.0,35,0.00,,,-99.99,,2013-04-20 22:03:00,
2013-04-20 18:12:00,46.0,21.0,-100.00,North,-999,-999.0,-999.0,37,0.00,,,-99.99,,2013-04-20 22:12:00,
2013-04-20 18:22:00,45.0,21.0,-100.00,WNW,295,8.0,14.0,38,0.00,,,-99.99,,2013-04-20 22:22:00,
2013-04-20 18:32:00,44.0,23.0,-100.00,NW,315,5.0,12.0,43,0.00,,,-99.99,,2013-04-20 22:32:00,
2013-04-20 18:42:00,43.0,22.0,-100.00,NW,320,4.0,18.0,42,0.00,,,-99.99,,2013-04-20 22:42:00,
2013-04-20 18:52:00,43.0,23.0,-100.00,NNW,330,6.0,14.0,44,0.00,,,-99.99,,2013-04-20 22:52:00,
2013-04-20 19:02:00,42.0,24.0,-100.00,NW,320,4.0,9.0,46,0.00,,,-99.99,,2013-04-20 23:02:00,
2013-04-20 19:11:00,42.0,22.0,-100.00,NW,315,4.0,9.0,44,0.00,,,-99.99,,2013-04-20 23:11:00,
2013-04-20 19:22:00,42.0,22.0,-100.00,WNW,295,4.0,9.0,44,0.00,,,-99.99,,2013-04-20 23:22:00,
2013-04-20 19:32:00,42.0,21.0,-100.00,NW,315,6.0,14.0,42,0.00,,,-99.99,,2013-04-20 23:32:00,
2013-04-20 19:42:00,42.0,21.0,-100.00,NW,305,4.0,12.0,43,0.00,,,-99.99,,2013-04-20 23:42:00,
2013-04-20 19:52:00,41.0,21.0,-100.00,WNW,295,2.0,12.0,44,0.00,,,-99.99,,2013-04-20 23:52:00,
2013-04-20 20:01:00,41.0,21.0,-100.00,WNW,295,4.0,12.0,43,0.00,,,-99.99,,2013-04-21 00:01:00,
2013-04-20 20:12:00,41.0,20.0,-100.00,WNW,295,3.0,9.0,43,0.00,,,-99.99,,2013-04-21 00:12:00,
2013-04-20 20:22:00,40.0,20.0,-100.00,West,275,6.0,16.0,42,0.00,,,-99.99,,2013-04-21 00:22:00,
2013-04-20 20:32:00,40.0,20.0,-100.00,WSW,255,4.0,12.0,43,0.00,,,-99.99,,2013-04-21 00:32:00,
2013-04-20 20:42:00,40.0,20.0,-100.00,WNW,300,4.0,10.0,43,0.00,,,-99.99,,2013-04-21 00:42:00,
2013-04-20 20:52:00,40.0,20.0,-100.00,WNW,290,5.0,14.0,43,0.00,,,-99.99,,2013-04-21 00:52:00,
2013-04-20 21:01:00,39.0,18.0,-100.00,WNW,290,4.0,16.0,42,0.00,,,-99.99,,2013-04-21 01:01:00,
2013-04-20 21:12:00,39.0,19.0,-100.00,WNW,300,4.0,18.0,43,0.00,,,-99.99,,2013-04-21 01:12:00,
2013-04-20 21:21:00,38.0,18.0,-100.00,NW,325,6.0,11.0,43,0.00,,,-99.99,,2013-04-21 01:21:00,
2013-04-20 21:32:00,38.0,18.0,-100.00,WNW,290,7.0,16.0,43,0.00,,,-99.99,,2013-04-21 01:32:00,
2013-04-20 21:42:00,38.0,18.0,-100.00,WNW,285,8.0,12.0,43,0.00,,,-99.99,,2013-04-21 01:42:00,
2013-04-20 21:52:00,38.0,18.0,-100.00,WNW,300,6.0,16.0,44,0.00,,,-99.99,,2013-04-21 01:52:00,
2013-04-20 22:02:00,38.0,18.0,-100.00,WNW,290,4.0,12.0,43,0.00,,,-99.99,,2013-04-21 02:02:00,
2013-04-20 22:11:00,38.0,18.0,-100.00,WNW,295,6.0,13.0,44,0.00,,,-99.99,,2013-04-21 02:11:00,
2013-04-20 22:22:00,37.0,18.0,-100.00,NW,315,2.0,13.0,45,0.00,,,-99.99,,2013-04-21 02:22:00,
2013-04-20 22:32:00,37.0,17.0,-100.00,WNW,295,7.0,19.0,43,0.00,,,-99.99,,2013-04-21 02:32:00,
2013-04-20 22:42:00,37.0,17.0,-100.00,West,280,5.0,13.0,44,0.00,,,-99.99,,2013-04-21 02:42:00,
2013-04-20 22:52:00,36.0,17.0,-100.00,WNW,290,6.0,16.0,44,0.00,,,-99.99,,2013-04-21 02:52:00,
2013-04-20 23:01:00,36.0,17.0,-100.00,WNW,290,6.0,16.0,44,0.00,,,-99.99,,2013-04-21 03:01:00,
2013-04-20 23:11:00,36.0,17.0,-100.00,WNW,290,6.0,16.0,44,0.00,,,-99.99,,2013-04-21 03:11:00,
2013-04-20 23:21:00,36.0,17.0,-100.00,West,270,4.0,11.0,46,0.00,,,-99.99,,2013-04-21 03:21:00,
2013-04-20 23:33:00,36.0,17.0,-100.00,WNW,295,4.0,12.0,46,0.00,,,-99.99,,2013-04-21 03:33:00,
2013-04-20 23:42:00,35.0,16.0,-100.00,NW,305,6.0,14.0,44,0.00,,,-99.99,,2013-04-21 03:42:00,
2013-04-20 23:53:00,35.0,16.0,-100.00,WNW,300,6.0,20.0,45,0.00,,,-99.99,,2013-04-21 03:53:00,